createdAt,value
2016-06-22T00:00:31.461Z,19.06
2016-06-22T00:01:53.642Z,19.08
2016-06-22T00:02:37.543Z,18.97
2016-06-22T00:03:31.462Z,19.1
2016-06-22T00:04:31.597Z,18.98
2016-06-22T00:05:31.435Z,18.98
2016-06-22T00:06:31.447Z,19.13
2016-06-22T00:07:31.458Z,18.97
2016-06-22T00:08:31.524Z,19.01
2016-06-22T00:09:31.543Z,18.98
2016-06-22T00:10:31.468Z,19.02
2016-06-22T00:11:31.516Z,19.1
2016-06-22T00:12:31.499Z,19.1
2016-06-22T00:13:31.462Z,19.02
2016-06-22T00:14:31.438Z,19.06
2016-06-22T00:15:31.686Z,19.05
2016-06-22T00:16:31.455Z,19.1
2016-06-22T00:17:31.516Z,19.02
2016-06-22T00:18:31.501Z,19.05
2016-06-22T00:19:31.497Z,19.05
2016-06-22T00:20:31.580Z,19.06
2016-06-22T00:21:31.497Z,19.08
2016-06-22T00:22:31.472Z,19.13
2016-06-22T00:23:32.644Z,19.06
2016-06-22T00:24:31.533Z,19.06
2016-06-22T00:25:31.486Z,19.06
2016-06-22T00:26:31.495Z,19.06
2016-06-22T00:27:31.413Z,19.1
2016-06-22T00:28:31.573Z,19.05
2016-06-22T00:29:31.516Z,19.08
2016-06-22T00:30:31.530Z,18.99
2016-06-22T00:31:31.538Z,18.97
2016-06-22T00:32:31.577Z,19.06
2016-06-22T00:33:31.519Z,19.02
2016-06-22T00:34:31.508Z,19.02
2016-06-22T00:35:31.592Z,18.98
2016-06-22T00:36:31.578Z,18.95
2016-06-22T00:37:31.485Z,18.87
2016-06-22T00:38:31.505Z,18.91
2016-06-22T00:39:31.576Z,18.97
2016-06-22T00:40:31.537Z,19.01
2016-06-22T00:41:31.565Z,18.94
2016-06-22T00:42:31.473Z,18.84
2016-06-22T00:43:31.535Z,18.92
2016-06-22T00:44:31.527Z,18.99
2016-06-22T00:45:31.534Z,18.95
2016-06-22T00:46:31.984Z,18.98
2016-06-22T00:47:31.590Z,18.99
2016-06-22T00:48:31.623Z,18.94
2016-06-22T00:49:31.574Z,18.94
2016-06-22T00:50:33.296Z,18.84
2016-06-22T00:51:31.519Z,18.92
2016-06-22T00:52:31.553Z,18.9
2016-06-22T00:53:31.513Z,18.94
2016-06-22T00:54:31.521Z,18.92
2016-06-22T00:55:31.489Z,18.97
2016-06-22T00:56:31.526Z,18.87
2016-06-22T00:57:31.478Z,18.84
2016-06-22T00:58:31.509Z,18.86
2016-06-22T00:59:31.458Z,18.84
2016-06-22T01:00:31.575Z,18.82
2016-06-22T01:01:31.535Z,18.92
2016-06-22T01:02:31.511Z,18.77
2016-06-22T01:03:31.553Z,18.77
2016-06-22T01:04:31.621Z,18.76
2016-06-22T01:05:31.564Z,18.77
2016-06-22T01:06:31.526Z,18.79
2016-06-22T01:07:31.519Z,18.82
2016-06-22T01:08:31.665Z,18.74
2016-06-22T01:09:31.619Z,18.68
2016-06-22T01:10:31.544Z,18.77
2016-06-22T01:11:31.537Z,18.77
2016-06-22T01:12:31.550Z,18.73
2016-06-22T01:13:31.552Z,18.74
2016-06-22T01:14:31.550Z,18.77
2016-06-22T01:15:31.509Z,18.77
2016-06-22T01:16:31.556Z,18.79
2016-06-22T01:17:31.535Z,18.67
2016-06-22T01:18:31.463Z,18.7
2016-06-22T01:19:31.530Z,18.67
2016-06-22T01:20:31.563Z,18.73
2016-06-22T01:21:31.561Z,18.74
2016-06-22T01:22:31.556Z,18.65
2016-06-22T01:23:31.685Z,18.74
2016-06-22T01:24:31.552Z,18.61
2016-06-22T01:25:31.540Z,18.65
2016-06-22T01:26:31.546Z,18.58
2016-06-22T01:27:31.605Z,18.72
2016-06-22T01:28:31.537Z,18.65
2016-06-22T01:29:31.616Z,18.58
2016-06-22T01:30:31.594Z,18.58
2016-06-22T01:31:31.569Z,18.61
2016-06-22T01:32:31.612Z,18.61
2016-06-22T01:33:31.604Z,18.65
2016-06-22T01:34:31.544Z,18.64
2016-06-22T01:35:31.593Z,18.67
2016-06-22T01:36:31.543Z,18.59
2016-06-22T01:37:31.598Z,18.72
2016-06-22T01:38:31.602Z,18.72
2016-06-22T01:39:31.598Z,18.62
2016-06-22T01:40:31.621Z,18.68
2016-06-22T01:41:31.617Z,18.7
2016-06-22T01:42:31.857Z,18.59
2016-06-22T01:43:31.609Z,18.65
2016-06-22T01:44:31.689Z,18.67
2016-06-22T01:45:31.549Z,18.68
2016-06-22T01:46:31.599Z,18.68
2016-06-22T01:47:31.715Z,18.61
2016-06-22T01:48:31.575Z,18.67
2016-06-22T01:49:31.566Z,18.67
2016-06-22T01:50:31.585Z,18.64
2016-06-22T01:51:32.157Z,18.67
2016-06-22T01:52:31.636Z,18.61
2016-06-22T01:53:31.559Z,18.62
2016-06-22T01:54:31.637Z,18.68
2016-06-22T01:55:31.542Z,18.61
2016-06-22T01:56:31.734Z,18.61
2016-06-22T01:57:31.842Z,18.62
2016-06-22T01:58:31.591Z,18.55
2016-06-22T01:59:31.575Z,18.58
2016-06-22T02:00:31.657Z,18.61
2016-06-22T02:01:31.692Z,18.57
2016-06-22T02:02:31.593Z,18.72
2016-06-22T02:03:31.641Z,18.68
2016-06-22T02:04:31.626Z,18.65
2016-06-22T02:05:31.653Z,18.59
2016-06-22T02:06:31.574Z,18.62
2016-06-22T02:07:31.609Z,18.67
2016-06-22T02:08:31.661Z,18.68
2016-06-22T02:09:31.613Z,18.64
2016-06-22T02:10:31.577Z,18.65
2016-06-22T02:11:31.622Z,18.65
2016-06-22T02:12:31.634Z,18.61
2016-06-22T02:13:31.612Z,18.62
2016-06-22T02:14:31.607Z,18.68
2016-06-22T02:15:31.659Z,18.68
2016-06-22T02:16:31.606Z,18.57
2016-06-22T02:17:55.187Z,18.65
2016-06-22T02:19:14.517Z,18.52
2016-06-22T02:20:03.553Z,18.54
2016-06-22T02:21:03.320Z,18.55
2016-06-22T02:22:03.322Z,18.49
2016-06-22T02:23:03.587Z,18.49
2016-06-22T02:24:03.302Z,18.39
2016-06-22T02:25:03.274Z,18.42
2016-06-22T02:27:02.228Z,18.42
2016-06-22T02:28:14.973Z,18.39
2016-06-22T02:29:27.885Z,18.4
2016-06-22T02:30:49.088Z,18.46
2016-06-22T02:32:08.897Z,18.36
2016-06-22T02:33:49.113Z,18.37
2016-06-22T02:35:08.913Z,18.52
2016-06-22T02:37:10.127Z,18.34
2016-06-22T02:38:22.245Z,18.37
2016-06-22T02:39:54.862Z,18.39
2016-06-22T02:41:08.918Z,18.37
2016-06-22T02:41:34.388Z,18.34
2016-06-22T02:42:34.390Z,18.33
2016-06-22T02:43:34.362Z,18.33
2016-06-22T02:44:34.386Z,18.29
2016-06-22T02:45:34.518Z,18.34
2016-06-22T02:46:34.437Z,18.25
2016-06-22T02:47:34.448Z,18.21
2016-06-22T02:48:34.449Z,18.24
2016-06-22T02:49:34.434Z,18.19
2016-06-22T02:50:34.622Z,18.28
2016-06-22T02:51:34.658Z,18.25
2016-06-22T02:52:34.436Z,18.28
2016-06-22T02:53:34.417Z,18.21
2016-06-22T02:54:34.493Z,18.28
2016-06-22T02:55:34.430Z,18.18
2016-06-22T02:56:34.466Z,18.31
2016-06-22T02:57:34.550Z,18.25
2016-06-22T02:58:34.574Z,18.29
2016-06-22T03:00:49.115Z,18.19
2016-06-22T03:02:05.758Z,18.21
2016-06-22T03:03:08.445Z,18.34
2016-06-22T03:04:18.737Z,18.34
2016-06-22T03:05:32.203Z,18.28
2016-06-22T03:07:14.770Z,18.37
2016-06-22T03:08:50.930Z,18.22
2016-06-22T03:10:42.402Z,18.18
2016-06-22T03:11:41.811Z,18.31
2016-06-22T03:12:27.549Z,18.28
2016-06-22T03:13:27.541Z,18.24
2016-06-22T03:14:27.533Z,18.27
2016-06-22T03:15:27.569Z,18.19
2016-06-22T03:16:27.535Z,18.31
2016-06-22T03:17:27.536Z,18.24
2016-06-22T03:18:27.557Z,18.28
2016-06-22T03:19:27.517Z,18.24
2016-06-22T03:20:27.567Z,18.17
2016-06-22T03:21:27.580Z,18.21
2016-06-22T03:22:27.521Z,18.29
2016-06-22T03:23:27.613Z,18.21
2016-06-22T03:24:27.489Z,18.22
2016-06-22T03:25:27.511Z,18.27
2016-06-22T03:26:27.559Z,18.13
2016-06-22T03:27:27.579Z,18.31
2016-06-22T03:28:27.597Z,18.25
2016-06-22T03:29:27.575Z,18.28
2016-06-22T03:30:27.561Z,18.18
2016-06-22T03:31:27.488Z,18.24
2016-06-22T03:32:27.539Z,18.28
2016-06-22T03:33:27.575Z,18.24
2016-06-22T03:34:27.616Z,18.28
2016-06-22T03:35:27.630Z,18.31
2016-06-22T03:36:27.543Z,18.28
2016-06-22T03:37:27.559Z,18.28
2016-06-22T03:38:27.502Z,18.33
2016-06-22T03:39:27.501Z,18.34
2016-06-22T03:40:27.537Z,18.4
2016-06-22T03:41:27.524Z,18.28
2016-06-22T03:42:27.554Z,18.4
2016-06-22T03:43:27.598Z,18.33
2016-06-22T03:44:27.519Z,18.28
2016-06-22T03:45:27.495Z,18.37
2016-06-22T03:46:27.544Z,18.37
2016-06-22T03:47:27.705Z,18.34
2016-06-22T03:48:27.623Z,18.33
2016-06-22T03:49:27.568Z,18.28
2016-06-22T03:50:27.583Z,18.46
2016-06-22T03:51:27.533Z,18.39
2016-06-22T03:52:27.550Z,18.5
2016-06-22T03:53:27.566Z,18.54
2016-06-22T03:54:27.529Z,18.49
2016-06-22T03:55:27.587Z,18.57
2016-06-22T03:56:27.586Z,18.47
2016-06-22T03:57:27.629Z,18.62
2016-06-22T03:58:27.661Z,18.52
2016-06-22T03:59:27.613Z,18.64
2016-06-22T04:00:27.586Z,18.61
2016-06-22T04:01:27.589Z,18.64
2016-06-22T04:02:27.580Z,18.77
2016-06-22T04:03:27.581Z,18.72
2016-06-22T04:04:27.585Z,18.68
2016-06-22T04:05:27.511Z,18.68
2016-06-22T04:06:27.643Z,18.68
2016-06-22T04:07:27.624Z,18.77
2016-06-22T04:08:27.590Z,18.65
2016-06-22T04:09:27.594Z,18.67
2016-06-22T04:10:27.586Z,18.68
2016-06-22T04:11:27.614Z,18.77
2016-06-22T04:12:27.558Z,18.82
2016-06-22T04:13:27.587Z,18.68
2016-06-22T04:14:27.523Z,18.76
2016-06-22T04:15:27.532Z,18.8
2016-06-22T04:16:27.614Z,18.77
2016-06-22T04:17:27.609Z,18.76
2016-06-22T04:18:27.622Z,18.86
2016-06-22T04:19:27.567Z,18.87
2016-06-22T04:20:27.587Z,18.9
2016-06-22T04:21:27.623Z,18.91
2016-06-22T04:22:27.542Z,19.02
2016-06-22T04:23:27.705Z,18.9
2016-06-22T04:24:27.681Z,18.91
2016-06-22T04:25:27.620Z,18.97
2016-06-22T04:26:27.632Z,18.92
2016-06-22T04:27:27.680Z,18.9
2016-06-22T04:28:27.584Z,19.13
2016-06-22T04:29:27.596Z,19.08
2016-06-22T04:30:27.639Z,19.08
2016-06-22T04:31:27.604Z,19.17
2016-06-22T04:32:27.674Z,19.21
2016-06-22T04:33:27.557Z,19.15
2016-06-22T04:34:27.569Z,19.29
2016-06-22T04:35:27.647Z,19.29
2016-06-22T04:36:27.625Z,19.38
2016-06-22T04:37:27.583Z,19.48
2016-06-22T04:38:27.594Z,19.42
2016-06-22T04:39:27.679Z,19.63
2016-06-22T04:40:27.554Z,19.7
2016-06-22T04:41:27.668Z,19.8
2016-06-22T04:42:27.603Z,19.8
2016-06-22T04:43:27.614Z,19.95
2016-06-22T04:44:27.590Z,20.15
2016-06-22T04:45:27.602Z,20.2
2016-06-22T04:46:27.612Z,20.35
2016-06-22T04:47:27.596Z,20.47
2016-06-22T04:48:27.577Z,20.56
2016-06-22T04:49:27.613Z,20.61
2016-06-22T04:50:27.646Z,20.47
2016-06-22T04:52:01.635Z,20.65
2016-06-22T04:53:02.756Z,20.69
2016-06-22T04:54:02.456Z,20.76
2016-06-22T04:54:46.176Z,20.64
2016-06-22T04:55:49.481Z,20.66
2016-06-22T04:57:00.833Z,20.69
2016-06-22T04:58:27.289Z,20.65
2016-06-22T05:00:15.505Z,20.69
2016-06-22T05:01:37.722Z,20.65
2016-06-22T05:02:58.756Z,20.66
2016-06-22T05:04:21.416Z,20.64
2016-06-22T05:05:41.512Z,20.54
2016-06-22T05:07:00.443Z,20.49
2016-06-22T05:08:11.416Z,20.51
2016-06-22T05:09:31.281Z,20.61
2016-06-22T05:10:34.595Z,20.64
2016-06-22T05:11:43.853Z,20.64
2016-06-22T05:12:36.895Z,20.69
2016-06-22T05:13:25.592Z,20.74
2016-06-22T05:14:25.954Z,20.74
2016-06-22T05:15:25.503Z,20.8
2016-06-22T05:17:17.702Z,20.95
2016-06-22T05:17:28.401Z,20.96
2016-06-22T05:18:28.420Z,21.06
2016-06-22T05:19:28.352Z,21.01
2016-06-22T05:20:28.425Z,21.04
2016-06-22T05:21:28.396Z,21.04
2016-06-22T05:22:28.347Z,20.96
2016-06-22T05:23:28.403Z,20.86
2016-06-22T05:24:28.368Z,20.81
2016-06-22T05:25:28.767Z,20.8
2016-06-22T05:26:28.318Z,20.86
2016-06-22T05:27:28.400Z,20.95
2016-06-22T05:28:28.378Z,20.96
2016-06-22T05:29:28.406Z,21.11
2016-06-22T05:30:28.430Z,21.29
2016-06-22T05:31:28.397Z,21.38
2016-06-22T05:32:28.366Z,21.39
2016-06-22T05:33:28.546Z,21.56
2016-06-22T05:34:28.322Z,21.72
2016-06-22T05:35:28.391Z,21.83
2016-06-22T05:36:28.387Z,21.79
2016-06-22T05:37:28.370Z,21.76
2016-06-22T05:38:28.390Z,21.69
2016-06-22T05:39:28.350Z,21.79
2016-06-22T05:40:28.427Z,21.75
2016-06-22T05:41:28.312Z,21.71
2016-06-22T05:42:28.341Z,21.6
2016-06-22T05:43:28.390Z,21.59
2016-06-22T05:44:28.281Z,21.57
2016-06-22T05:45:28.247Z,21.53
2016-06-22T05:46:28.279Z,21.53
2016-06-22T05:47:28.258Z,21.57
2016-06-22T05:48:28.243Z,21.57
2016-06-22T05:49:28.269Z,21.57
2016-06-22T05:50:28.257Z,21.67
2016-06-22T05:51:28.239Z,21.61
2016-06-22T05:52:28.303Z,21.63
2016-06-22T05:53:28.278Z,21.75
2016-06-22T05:54:28.264Z,21.74
2016-06-22T05:55:28.267Z,21.54
2016-06-22T05:56:28.244Z,21.6
2016-06-22T05:57:28.323Z,21.54
2016-06-22T05:58:28.293Z,21.53
2016-06-22T05:59:28.258Z,21.46
2016-06-22T06:00:28.258Z,21.38
2016-06-22T06:01:28.382Z,21.32
2016-06-22T06:02:28.283Z,21.39
2016-06-22T06:03:28.266Z,21.27
2016-06-22T06:04:28.278Z,21.2
2016-06-22T06:05:28.264Z,21.19
2016-06-22T06:06:28.266Z,21.3
2016-06-22T06:07:28.295Z,21.3
2016-06-22T06:08:28.310Z,21.24
2016-06-22T06:09:28.298Z,21.2
2016-06-22T06:10:28.338Z,21.26
2016-06-22T06:11:28.295Z,21.29
2016-06-22T06:12:28.333Z,21.41
2016-06-22T06:13:28.249Z,21.39
2016-06-22T06:14:28.323Z,21.57
2016-06-22T06:15:28.286Z,21.48
2016-06-22T06:16:28.271Z,21.48
2016-06-22T06:17:28.299Z,21.59
2016-06-22T06:18:28.298Z,21.59
2016-06-22T06:19:28.294Z,21.61
2016-06-22T06:20:28.328Z,21.61
2016-06-22T06:21:28.259Z,21.63
2016-06-22T06:22:28.280Z,21.57
2016-06-22T06:23:28.273Z,21.57
2016-06-22T06:24:28.252Z,21.61
2016-06-22T06:25:28.287Z,21.71
2016-06-22T06:26:28.279Z,21.61
2016-06-22T06:27:28.339Z,21.67
2016-06-22T06:28:28.298Z,21.76
2016-06-22T06:29:28.280Z,21.72
2016-06-22T06:30:28.297Z,21.82
2016-06-22T06:31:28.314Z,21.94
2016-06-22T06:32:28.301Z,21.9
2016-06-22T06:33:28.322Z,21.95
2016-06-22T06:34:28.322Z,22.1
2016-06-22T06:35:28.337Z,22.27
2016-06-22T06:36:28.343Z,22.25
2016-06-22T06:37:28.362Z,22.41
2016-06-22T06:38:28.331Z,22.62
2016-06-22T06:39:28.314Z,22.67
2016-06-22T06:40:28.338Z,23.01
2016-06-22T06:41:28.330Z,23.22
2016-06-22T06:42:28.356Z,23.57
2016-06-22T06:43:28.387Z,23.9
2016-06-22T06:44:28.343Z,24.31
2016-06-22T06:45:28.390Z,24.94
2016-06-22T06:46:28.340Z,25.24
2016-06-22T06:47:28.343Z,25.19
2016-06-22T06:48:28.308Z,24.95
2016-06-22T06:49:28.319Z,25.31
2016-06-22T06:50:28.322Z,25.71
2016-06-22T06:51:28.311Z,25.65
2016-06-22T06:52:28.342Z,25.98
2016-06-22T06:53:28.313Z,26.37
2016-06-22T06:54:28.328Z,27.13
2016-06-22T06:55:28.442Z,27.94
2016-06-22T06:56:28.426Z,27.89
2016-06-22T06:57:28.489Z,27.53
2016-06-22T06:58:30.088Z,27.19
2016-06-22T06:59:28.443Z,27.26
2016-06-22T07:00:28.362Z,27.06
2016-06-22T07:01:28.347Z,26.61
2016-06-22T07:02:28.504Z,26.06
2016-06-22T07:03:28.345Z,25.79
2016-06-22T07:04:28.345Z,25.56
2016-06-22T07:05:28.329Z,25.47
2016-06-22T07:06:28.324Z,25.34
2016-06-22T07:07:28.319Z,25.06
2016-06-22T07:08:28.326Z,24.9
2016-06-22T07:09:28.349Z,24.98
2016-06-22T07:10:28.341Z,24.83
2016-06-22T07:11:28.349Z,24.82
2016-06-22T07:12:28.377Z,24.9
2016-06-22T07:13:28.309Z,25
2016-06-22T07:14:28.397Z,25.1
2016-06-22T07:15:28.354Z,25.1
2016-06-22T07:16:28.414Z,25.1
2016-06-22T07:17:29.164Z,25.39
2016-06-22T07:18:28.352Z,25.65
2016-06-22T07:19:29.323Z,25.65
2016-06-22T07:20:28.319Z,25.94
2016-06-22T07:21:28.976Z,26.05
2016-06-22T07:22:28.544Z,26.77
2016-06-22T07:23:28.354Z,26.68
2016-06-22T07:24:28.390Z,26.29
2016-06-22T07:25:29.608Z,26.01
2016-06-22T07:26:28.340Z,26.31
2016-06-22T07:27:28.379Z,26.68
2016-06-22T07:28:28.517Z,27.01
2016-06-22T07:29:28.527Z,27.53
2016-06-22T07:30:28.903Z,27.48
2016-06-22T07:31:28.513Z,27.58
2016-06-22T07:32:28.446Z,27.99
2016-06-22T07:33:28.920Z,27.7
2016-06-22T07:34:28.881Z,27.67
2016-06-22T07:35:28.649Z,27.8
2016-06-22T07:36:28.400Z,28.5
2016-06-22T07:37:28.495Z,28.97
2016-06-22T07:38:28.915Z,28.97
2016-06-22T07:39:28.500Z,29.04
2016-06-22T07:40:28.566Z,29.25
2016-06-22T07:41:28.391Z,28.58
2016-06-22T07:42:28.354Z,28.5
2016-06-22T07:43:28.338Z,28.41
2016-06-22T07:44:28.577Z,28.29
2016-06-22T07:45:28.376Z,27.79
2016-06-22T07:46:28.394Z,27.41
2016-06-22T07:47:28.382Z,27.04
2016-06-22T07:48:28.397Z,26.87
2016-06-22T07:49:28.371Z,26.8
2016-06-22T07:50:28.386Z,26.59
2016-06-22T07:51:28.401Z,26.37
2016-06-22T07:52:28.393Z,26.28
2016-06-22T07:53:28.392Z,25.97
2016-06-22T07:54:28.365Z,26.2
2016-06-22T07:55:28.393Z,26.29
2016-06-22T07:56:28.406Z,26.96
2016-06-22T07:57:28.478Z,26.81
2016-06-22T07:58:28.414Z,26.73
2016-06-22T07:59:28.402Z,26.94
2016-06-22T08:00:28.389Z,27.31
2016-06-22T08:01:28.387Z,27.16
2016-06-22T08:02:28.462Z,27.21
2016-06-22T08:03:28.395Z,27.19
2016-06-22T08:04:28.390Z,27.14
2016-06-22T08:05:28.450Z,27.57
2016-06-22T08:06:28.401Z,28.01
2016-06-22T08:07:28.388Z,28.28
2016-06-22T08:08:28.394Z,28.09
2016-06-22T08:09:28.392Z,28.01
2016-06-22T08:10:28.418Z,28.1
2016-06-22T08:11:28.408Z,28.1
2016-06-22T08:12:28.403Z,27.71
2016-06-22T08:13:28.411Z,27.41
2016-06-22T08:14:28.407Z,27.51
2016-06-22T08:15:28.398Z,27.79
2016-06-22T08:16:28.389Z,27.47
2016-06-22T08:17:28.378Z,27.19
2016-06-22T08:18:28.404Z,27.35
2016-06-22T08:19:28.410Z,27.43
2016-06-22T08:20:28.421Z,27.71
2016-06-22T08:21:28.456Z,27.64
2016-06-22T08:22:28.508Z,27.39
2016-06-22T08:23:29.039Z,27.74
2016-06-22T08:24:28.530Z,27.89
2016-06-22T08:25:28.431Z,27.86
2016-06-22T08:26:28.514Z,27.57
2016-06-22T08:27:28.422Z,27.62
2016-06-22T08:28:28.404Z,27.47
2016-06-22T08:29:28.559Z,27.38
2016-06-22T08:30:28.522Z,27.61
2016-06-22T08:31:28.486Z,27.64
2016-06-22T08:32:28.398Z,27.36
2016-06-22T08:33:28.439Z,27.05
2016-06-22T08:34:28.567Z,26.67
2016-06-22T08:35:28.493Z,26.46
2016-06-22T08:36:28.390Z,26.27
2016-06-22T08:37:28.419Z,26.2
2016-06-22T08:38:28.456Z,26.24
2016-06-22T08:39:28.450Z,26.27
2016-06-22T08:40:28.490Z,26.36
2016-06-22T08:41:28.453Z,26.37
2016-06-22T08:42:28.445Z,26.31
2016-06-22T08:43:28.475Z,26.25
2016-06-22T08:44:28.441Z,26.22
2016-06-22T08:45:28.454Z,26.17
2016-06-22T08:46:28.448Z,26.05
2016-06-22T08:47:28.435Z,25.9
2016-06-22T08:48:28.457Z,25.97
2016-06-22T08:49:28.418Z,26.02
2016-06-22T08:50:28.497Z,26.22
2016-06-22T08:51:28.432Z,26.08
2016-06-22T08:52:29.719Z,25.9
2016-06-22T08:53:28.434Z,25.99
2016-06-22T08:54:28.546Z,26.04
2016-06-22T08:55:28.508Z,26.02
2016-06-22T08:56:28.473Z,26.24
2016-06-22T08:57:28.473Z,26.42
2016-06-22T08:58:28.456Z,26.65
2016-06-22T08:59:28.591Z,26.72
2016-06-22T09:00:28.454Z,26.69
2016-06-22T09:01:28.671Z,26.84
2016-06-22T09:02:28.576Z,27.01
2016-06-22T09:03:28.694Z,27.11
2016-06-22T09:04:28.589Z,26.99
2016-06-22T09:05:28.492Z,26.8
2016-06-22T09:06:28.553Z,26.58
2016-06-22T09:07:28.457Z,26.64
2016-06-22T09:08:28.554Z,26.64
2016-06-22T09:09:28.549Z,26.57
2016-06-22T09:10:28.572Z,26.67
2016-06-22T09:11:29.241Z,26.64
2016-06-22T09:12:28.537Z,26.52
2016-06-22T09:13:28.533Z,26.47
2016-06-22T09:14:29.473Z,26.65
2016-06-22T09:15:28.563Z,26.59
2016-06-22T09:16:28.585Z,26.61
2016-06-22T09:17:28.706Z,26.67
2016-06-22T09:18:28.632Z,26.57
2016-06-22T09:19:28.617Z,26.44
2016-06-22T09:20:28.455Z,26.64
2016-06-22T09:21:28.490Z,26.61
2016-06-22T09:22:28.622Z,26.5
2016-06-22T09:23:28.465Z,26.47
2016-06-22T09:24:28.480Z,26.43
2016-06-22T09:25:28.512Z,26.4
2016-06-22T09:26:28.831Z,26.17
2016-06-22T09:27:28.504Z,26.29
2016-06-22T09:28:28.564Z,26.37
2016-06-22T09:29:28.598Z,26.32
2016-06-22T09:30:28.517Z,26.29
2016-06-22T09:31:28.550Z,26.15
2016-06-22T09:32:28.485Z,26.25
2016-06-22T09:33:28.612Z,26.12
2016-06-22T09:34:28.512Z,26.15
2016-06-22T09:35:28.513Z,26.12
2016-06-22T09:36:28.508Z,26.04
2016-06-22T09:37:28.517Z,26.06
2016-06-22T09:38:28.604Z,25.93
2016-06-22T09:39:28.531Z,25.98
2016-06-22T09:40:28.500Z,25.77
2016-06-22T09:41:28.481Z,25.75
2016-06-22T09:42:28.521Z,25.65
2016-06-22T09:43:28.565Z,25.65
2016-06-22T09:44:28.484Z,25.75
2016-06-22T09:45:28.589Z,25.72
2016-06-22T09:46:28.595Z,25.67
2016-06-22T09:47:28.582Z,25.77
2016-06-22T09:48:28.582Z,25.53
2016-06-22T09:49:28.511Z,25.61
2016-06-22T09:50:28.571Z,25.67
2016-06-22T09:51:28.588Z,25.77
2016-06-22T09:52:28.673Z,25.67
2016-06-22T09:53:28.736Z,25.67
2016-06-22T09:54:28.707Z,25.72
2016-06-22T09:55:28.702Z,25.82
2016-06-22T09:56:28.774Z,25.97
2016-06-22T09:57:28.765Z,25.91
2016-06-22T09:58:28.705Z,25.84
2016-06-22T09:59:28.556Z,25.8
2016-06-22T10:00:28.667Z,25.67
2016-06-22T10:01:28.665Z,25.74
2016-06-22T10:02:28.774Z,25.83
2016-06-22T10:03:28.591Z,25.99
2016-06-22T10:04:28.574Z,26.04
2016-06-22T10:05:28.618Z,26.12
2016-06-22T10:06:28.593Z,26.25
2016-06-22T10:07:28.616Z,26.25
2016-06-22T10:08:28.819Z,26.5
2016-06-22T10:09:28.714Z,26.44
2016-06-22T10:10:28.659Z,26.52
2016-06-22T10:11:28.754Z,26.4
2016-06-22T10:12:28.600Z,26.65
2016-06-22T10:13:28.628Z,26.81
2016-06-22T10:14:29.254Z,26.81
2016-06-22T10:15:28.647Z,26.84
2016-06-22T10:16:28.641Z,26.84
2016-06-22T10:17:28.627Z,26.72
2016-06-22T10:18:28.654Z,26.77
2016-06-22T10:19:28.765Z,26.81
2016-06-22T10:20:28.639Z,26.77
2016-06-22T10:21:29.207Z,26.73
2016-06-22T10:22:28.656Z,26.77
2016-06-22T10:23:28.658Z,26.87
2016-06-22T10:24:28.656Z,26.86
2016-06-22T10:25:28.568Z,26.8
2016-06-22T10:26:28.600Z,26.8
2016-06-22T10:27:28.597Z,26.69
2016-06-22T10:28:29.219Z,26.96
2016-06-22T10:29:29.234Z,26.96
2016-06-22T10:30:29.276Z,26.94
2016-06-22T10:31:29.650Z,26.94
2016-06-22T10:32:28.660Z,27.01
2016-06-22T10:33:29.563Z,27.19
2016-06-22T10:34:28.644Z,27.11
2016-06-22T10:35:28.612Z,27.09
2016-06-22T10:36:28.641Z,27.05
2016-06-22T10:37:28.564Z,27.21
2016-06-22T10:38:28.677Z,27.17
2016-06-22T10:39:28.605Z,27.24
2016-06-22T10:40:28.646Z,27.2
2016-06-22T10:41:28.609Z,27.1
2016-06-22T10:42:28.714Z,27.01
2016-06-22T10:43:28.603Z,26.83
2016-06-22T10:44:28.670Z,26.94
2016-06-22T10:45:28.787Z,26.89
2016-06-22T10:46:28.686Z,27.04
2016-06-22T10:47:28.687Z,26.84
2016-06-22T10:48:28.664Z,26.69
2016-06-22T10:49:28.637Z,26.58
2016-06-22T10:50:28.640Z,26.46
2016-06-22T10:51:28.703Z,26.43
2016-06-22T10:52:28.643Z,26.44
2016-06-22T10:53:29.392Z,26.31
2016-06-22T10:54:28.685Z,26.36
2016-06-22T10:55:29.267Z,26.49
2016-06-22T10:56:28.668Z,26.36
2016-06-22T10:57:29.068Z,26.27
2016-06-22T10:58:30.964Z,26.31
2016-06-22T10:59:28.723Z,26.5
2016-06-22T11:00:29.351Z,26.5
2016-06-22T11:01:28.814Z,26.35
2016-06-22T11:02:28.682Z,26.35
2016-06-22T11:03:28.708Z,26.28
2016-06-22T11:04:29.248Z,26.42
2016-06-22T11:05:28.719Z,26.57
2016-06-22T11:06:28.693Z,26.74
2016-06-22T11:07:28.652Z,26.76
2016-06-22T11:08:28.826Z,26.99
2016-06-22T11:09:28.625Z,26.84
2016-06-22T11:10:28.694Z,26.98
2016-06-22T11:11:30.364Z,26.8
2016-06-22T11:12:28.681Z,26.83
2016-06-22T11:13:28.684Z,27.02
2016-06-22T11:14:29.451Z,26.89
2016-06-22T11:15:28.584Z,26.69
2016-06-22T11:16:29.695Z,26.61
2016-06-22T11:17:28.594Z,26.52
2016-06-22T11:18:28.743Z,26.44
2016-06-22T11:19:29.601Z,26.44
2016-06-22T11:20:28.672Z,26.44
2016-06-22T11:21:29.060Z,26.57
2016-06-22T11:22:29.271Z,26.55
2016-06-22T11:23:28.908Z,26.73
2016-06-22T11:24:29.638Z,26.8
2016-06-22T11:25:28.641Z,26.89
2016-06-22T11:26:28.717Z,26.86
2016-06-22T11:27:28.675Z,27.02
2016-06-22T11:28:28.762Z,27.2
2016-06-22T11:29:28.746Z,27.24
2016-06-22T11:30:28.699Z,27.05
2016-06-22T11:31:28.688Z,27.17
2016-06-22T11:32:28.711Z,27.26
2016-06-22T11:33:28.655Z,27.36
2016-06-22T11:34:28.717Z,27.39
2016-06-22T11:35:28.670Z,27.42
2016-06-22T11:36:28.814Z,27.29
2016-06-22T11:37:28.649Z,27.21
2016-06-22T11:38:29.180Z,27.04
2016-06-22T11:39:28.685Z,26.77
2016-06-22T11:40:28.884Z,26.67
2016-06-22T11:41:28.689Z,26.83
2016-06-22T11:42:28.700Z,26.84
2016-06-22T11:43:29.954Z,26.95
2016-06-22T11:44:28.826Z,26.95
2016-06-22T11:45:28.722Z,27.01
2016-06-22T11:46:28.773Z,26.87
2016-06-22T11:47:29.379Z,26.65
2016-06-22T11:48:28.753Z,26.62
2016-06-22T11:49:28.885Z,26.83
2016-06-22T11:50:28.828Z,26.87
2016-06-22T11:51:29.901Z,26.95
2016-06-22T11:52:28.794Z,26.91
2016-06-22T11:53:28.815Z,26.73
2016-06-22T11:54:28.815Z,26.99
2016-06-22T11:55:28.737Z,27.01
2016-06-22T11:56:28.859Z,27.11
2016-06-22T11:57:28.779Z,27.05
2016-06-22T11:58:28.737Z,27.13
2016-06-22T11:59:28.680Z,27.06
2016-06-22T12:00:28.708Z,27.2
2016-06-22T12:01:28.778Z,27.14
2016-06-22T12:02:28.767Z,27.11
2016-06-22T12:03:28.709Z,27.09
2016-06-22T12:04:28.714Z,27.04
2016-06-22T12:05:28.738Z,27.01
2016-06-22T12:06:28.841Z,26.92
2016-06-22T12:07:28.833Z,27.02
2016-06-22T12:08:28.945Z,27.2
2016-06-22T12:09:28.756Z,27.32
2016-06-22T12:10:28.808Z,27.17
2016-06-22T12:11:28.790Z,27.33
2016-06-22T12:12:28.730Z,27.24
2016-06-22T12:13:28.743Z,27.32
2016-06-22T12:14:28.603Z,27.26
2016-06-22T12:15:28.692Z,27.16
2016-06-22T12:16:28.780Z,27.2
2016-06-22T12:17:28.885Z,27.21
2016-06-22T12:18:28.824Z,27.17
2016-06-22T12:19:28.773Z,27.23
2016-06-22T12:20:28.765Z,27.48
2016-06-22T12:21:48.809Z,27.57
2016-06-22T12:22:28.828Z,27.77
2016-06-22T12:23:28.801Z,27.69
2016-06-22T12:24:28.791Z,27.64
2016-06-22T12:25:28.807Z,27.71
2016-06-22T12:26:28.807Z,27.74
2016-06-22T12:27:28.778Z,27.67
2016-06-22T12:28:28.745Z,27.82
2016-06-22T12:29:28.758Z,27.88
2016-06-22T12:30:28.745Z,27.94
2016-06-22T12:31:28.813Z,27.73
2016-06-22T12:32:28.866Z,27.79
2016-06-22T12:33:28.898Z,27.88
2016-06-22T12:34:28.846Z,27.89
2016-06-22T12:35:28.837Z,27.84
2016-06-22T12:36:28.823Z,27.89
2016-06-22T12:37:28.915Z,27.88
2016-06-22T12:38:28.793Z,27.73
2016-06-22T12:39:28.858Z,27.64
2016-06-22T12:41:20.791Z,27.59
2016-06-22T12:44:01.877Z,27.61
2016-06-22T12:45:01.811Z,27.67
2016-06-22T12:46:01.954Z,27.7
2016-06-22T12:47:01.833Z,27.76
2016-06-22T12:48:01.941Z,27.82
2016-06-22T12:49:01.858Z,28.01
2016-06-22T12:50:01.846Z,27.96
2016-06-22T12:51:01.850Z,27.91
2016-06-22T12:52:01.799Z,27.99
2016-06-22T12:53:02.090Z,28.03
2016-06-22T12:54:01.797Z,28.01
2016-06-22T12:55:01.827Z,28.14
2016-06-22T12:56:01.928Z,28.21
2016-06-22T12:57:01.867Z,28.23
2016-06-22T12:58:01.766Z,28.26
2016-06-22T12:59:01.929Z,28.5
2016-06-22T13:00:01.819Z,28.53
2016-06-22T13:01:01.774Z,28.59
2016-06-22T13:02:02.964Z,28.65
2016-06-22T13:03:01.901Z,28.88
2016-06-22T13:04:01.879Z,29.01
2016-06-22T13:05:01.973Z,29.25
2016-06-22T13:06:03.260Z,29.11
2016-06-22T13:07:01.857Z,29.2
2016-06-22T13:08:01.891Z,29.19
2016-06-22T13:09:01.847Z,29.2
2016-06-22T13:10:01.871Z,28.9
2016-06-22T13:11:01.858Z,28.87